sensor_id;sensor_type;location;lat;lon;timestamp;pressure;altitude;pressure_sealevel;temperature;humidity
12213;BME280;6169;44.158;22.788;2023-03-08T00:04:02;100163.84;;;7.08;51.77
12213;BME280;6169;44.158;22.788;2023-03-08T00:09:06;100162.38;;;7.24;51.62
12213;BME280;6169;44.158;22.788;2023-03-08T00:14:08;100167.38;;;7.39;50.71
12213;BME280;6169;44.158;22.788;2023-03-08T00:19:10;100168.72;;;7.48;50.68
12213;BME280;6169;44.158;22.788;2023-03-08T00:24:14;100163.72;;;7.63;50.38
12213;BME280;6169;44.158;22.788;2023-03-08T00:29:17;100171.03;;;7.44;49.80
12213;BME280;6169;44.158;22.788;2023-03-08T00:34:19;100171.00;;;7.63;50.22
12213;BME280;6169;44.158;22.788;2023-03-08T00:39:23;100162.09;;;7.74;49.40
12213;BME280;6169;44.158;22.788;2023-03-08T00:44:25;100158.31;;;7.63;49.34
12213;BME280;6169;44.158;22.788;2023-03-08T00:49:28;100163.75;;;7.75;49.20
12213;BME280;6169;44.158;22.788;2023-03-08T00:54:32;100151.03;;;7.33;50.36
12213;BME280;6169;44.158;22.788;2023-03-08T00:59:34;100154.22;;;7.72;49.60
12213;BME280;6169;44.158;22.788;2023-03-08T01:04:36;100153.53;;;7.89;49.60
12213;BME280;6169;44.158;22.788;2023-03-08T01:09:40;100149.56;;;7.91;50.13
12213;BME280;6169;44.158;22.788;2023-03-08T01:14:43;100151.47;;;8.14;49.24
12213;BME280;6169;44.158;22.788;2023-03-08T01:19:45;100146.88;;;7.61;50.01
12213;BME280;6169;44.158;22.788;2023-03-08T01:24:49;100145.75;;;7.69;50.21
12213;BME280;6169;44.158;22.788;2023-03-08T01:29:51;100144.53;;;8.07;48.42
12213;BME280;6169;44.158;22.788;2023-03-08T01:34:53;100136.97;;;7.85;48.94
12213;BME280;6169;44.158;22.788;2023-03-08T01:39:58;100124.97;;;7.39;49.90
12213;BME280;6169;44.158;22.788;2023-03-08T01:45:03;100126.75;;;7.45;50.79
12213;BME280;6169;44.158;22.788;2023-03-08T01:50:09;100134.28;;;7.55;49.97
12213;BME280;6169;44.158;22.788;2023-03-08T01:55:16;100143.09;;;7.20;49.85
12213;BME280;6169;44.158;22.788;2023-03-08T02:00:21;100133.50;;;7.06;50.36
12213;BME280;6169;44.158;22.788;2023-03-08T02:05:24;100123.41;;;7.31;49.27
12213;BME280;6169;44.158;22.788;2023-03-08T02:10:28;100139.44;;;6.96;50.31
12213;BME280;6169;44.158;22.788;2023-03-08T02:15:31;100138.84;;;6.94;50.64
12213;BME280;6169;44.158;22.788;2023-03-08T02:20:36;100138.16;;;6.99;52.11
12213;BME280;6169;44.158;22.788;2023-03-08T02:25:40;100134.09;;;6.71;50.93
12213;BME280;6169;44.158;22.788;2023-03-08T02:30:43;100130.72;;;6.57;50.33
12213;BME280;6169;44.158;22.788;2023-03-08T02:35:45;100140.34;;;6.28;52.59
12213;BME280;6169;44.158;22.788;2023-03-08T02:40:49;100137.69;;;6.47;52.17
12213;BME280;6169;44.158;22.788;2023-03-08T02:45:52;100142.56;;;6.56;52.74
12213;BME280;6169;44.158;22.788;2023-03-08T02:50:55;100144.56;;;6.24;53.29
12213;BME280;6169;44.158;22.788;2023-03-08T02:55:58;100148.28;;;6.23;51.07
12213;BME280;6169;44.158;22.788;2023-03-08T03:01:01;100151.75;;;6.05;52.80
12213;BME280;6169;44.158;22.788;2023-03-08T03:06:03;100157.25;;;5.92;51.75
12213;BME280;6169;44.158;22.788;2023-03-08T03:11:12;100153.75;;;5.60;52.90
12213;BME280;6169;44.158;22.788;2023-03-08T03:16:15;100156.72;;;5.51;53.96
12213;BME280;6169;44.158;22.788;2023-03-08T03:21:17;100161.84;;;5.91;53.45
12213;BME280;6169;44.158;22.788;2023-03-08T03:26:22;100170.38;;;5.88;54.29
12213;BME280;6169;44.158;22.788;2023-03-08T03:31:25;100158.78;;;5.56;55.79
12213;BME280;6169;44.158;22.788;2023-03-08T03:36:28;100169.31;;;5.89;55.09
12213;BME280;6169;44.158;22.788;2023-03-08T03:41:31;100174.72;;;5.89;52.70
12213;BME280;6169;44.158;22.788;2023-03-08T03:46:34;100182.28;;;5.74;53.80
12213;BME280;6169;44.158;22.788;2023-03-08T03:51:36;100183.41;;;5.91;55.25
12213;BME280;6169;44.158;22.788;2023-03-08T03:56:40;100191.09;;;5.63;53.12
12213;BME280;6169;44.158;22.788;2023-03-08T04:01:42;100201.44;;;5.66;53.37
12213;BME280;6169;44.158;22.788;2023-03-08T04:06:45;100206.31;;;5.50;53.54
12213;BME280;6169;44.158;22.788;2023-03-08T04:11:48;100207.13;;;5.44;54.23
12213;BME280;6169;44.158;22.788;2023-03-08T04:16:51;100157.16;;;5.48;54.91
12213;BME280;6169;44.158;22.788;2023-03-08T04:21:53;100201.44;;;5.97;54.32
12213;BME280;6169;44.158;22.788;2023-03-08T04:26:57;100204.09;;;6.29;53.95
12213;BME280;6169;44.158;22.788;2023-03-08T04:31:59;100208.94;;;6.20;54.23
12213;BME280;6169;44.158;22.788;2023-03-08T04:37:01;100210.56;;;5.96;52.05
12213;BME280;6169;44.158;22.788;2023-03-08T04:42:06;100201.56;;;5.77;52.33
12213;BME280;6169;44.158;22.788;2023-03-08T04:47:09;100206.53;;;6.12;53.39
12213;BME280;6169;44.158;22.788;2023-03-08T04:52:11;100205.38;;;6.27;53.86
12213;BME280;6169;44.158;22.788;2023-03-08T04:57:15;100207.22;;;5.69;54.80
12213;BME280;6169;44.158;22.788;2023-03-08T05:02:17;100209.19;;;5.87;56.60
12213;BME280;6169;44.158;22.788;2023-03-08T05:07:19;100222.56;;;6.57;56.47
12213;BME280;6169;44.158;22.788;2023-03-08T05:12:23;100214.44;;;6.57;55.39
12213;BME280;6169;44.158;22.788;2023-03-08T05:17:26;100233.63;;;6.74;54.58
12213;BME280;6169;44.158;22.788;2023-03-08T05:22:28;100234.88;;;6.97;54.71
12213;BME280;6169;44.158;22.788;2023-03-08T05:27:33;100228.69;;;6.89;51.60
12213;BME280;6169;44.158;22.788;2023-03-08T05:32:35;100232.03;;;6.41;53.29
12213;BME280;6169;44.158;22.788;2023-03-08T05:37:37;100249.13;;;6.79;54.13
12213;BME280;6169;44.158;22.788;2023-03-08T05:42:41;100258.13;;;7.16;52.71
12213;BME280;6169;44.158;22.788;2023-03-08T05:47:43;100257.84;;;7.06;53.41
12213;BME280;6169;44.158;22.788;2023-03-08T05:52:46;100262.84;;;7.57;53.47
12213;BME280;6169;44.158;22.788;2023-03-08T05:57:49;100265.13;;;7.72;52.26
12213;BME280;6169;44.158;22.788;2023-03-08T06:02:52;100273.34;;;7.84;51.95
12213;BME280;6169;44.158;22.788;2023-03-08T06:07:54;100266.91;;;7.97;51.94
12213;BME280;6169;44.158;22.788;2023-03-08T06:12:58;100278.81;;;8.38;51.00
12213;BME280;6169;44.158;22.788;2023-03-08T06:18:00;100263.53;;;8.67;50.01
12213;BME280;6169;44.158;22.788;2023-03-08T06:23:03;100264.13;;;8.69;50.23
12213;BME280;6169;44.158;22.788;2023-03-08T06:28:06;100268.34;;;9.12;48.30
12213;BME280;6169;44.158;22.788;2023-03-08T06:33:09;100270.78;;;9.37;48.33
12213;BME280;6169;44.158;22.788;2023-03-08T06:38:11;100274.84;;;9.75;46.79
12213;BME280;6169;44.158;22.788;2023-03-08T06:43:15;100286.63;;;10.09;46.23
12213;BME280;6169;44.158;22.788;2023-03-08T06:48:17;100289.84;;;10.23;46.35
12213;BME280;6169;44.158;22.788;2023-03-08T06:53:20;100295.69;;;10.15;46.38
12213;BME280;6169;44.158;22.788;2023-03-08T06:58:24;100304.84;;;10.42;45.62
12213;BME280;6169;44.158;22.788;2023-03-08T07:03:27;100276.56;;;10.55;45.84
12213;BME280;6169;44.158;22.788;2023-03-08T07:08:29;100304.75;;;10.83;45.54
12213;BME280;6169;44.158;22.788;2023-03-08T07:13:33;100317.50;;;10.82;44.73
12213;BME280;6169;44.158;22.788;2023-03-08T07:18:35;100328.94;;;11.18;44.25
12213;BME280;6169;44.158;22.788;2023-03-08T07:23:38;100336.50;;;11.16;44.21
12213;BME280;6169;44.158;22.788;2023-03-08T07:28:42;100335.47;;;11.17;44.74
12213;BME280;6169;44.158;22.788;2023-03-08T07:33:44;100345.13;;;11.08;44.88
12213;BME280;6169;44.158;22.788;2023-03-08T07:38:46;100348.66;;;10.91;46.13
12213;BME280;6169;44.158;22.788;2023-03-08T07:43:50;100350.31;;;10.93;46.62
12213;BME280;6169;44.158;22.788;2023-03-08T07:48:53;100349.16;;;11.05;44.99
12213;BME280;6169;44.158;22.788;2023-03-08T07:53:55;100338.88;;;11.29;45.42
12213;BME280;6169;44.158;22.788;2023-03-08T07:58:59;100345.41;;;11.89;43.19
12213;BME280;6169;44.158;22.788;2023-03-08T08:04:01;100337.84;;;12.18;41.31
12213;BME280;6169;44.158;22.788;2023-03-08T08:09:04;100337.75;;;12.35;40.27
12213;BME280;6169;44.158;22.788;2023-03-08T08:14:08;100332.94;;;12.47;40.54
12213;BME280;6169;44.158;22.788;2023-03-08T08:19:11;100330.66;;;12.66;40.82
12213;BME280;6169;44.158;22.788;2023-03-08T08:24:14;100329.53;;;12.62;41.01
12213;BME280;6169;44.158;22.788;2023-03-08T08:29:18;100329.66;;;13.57;38.71
12213;BME280;6169;44.158;22.788;2023-03-08T08:34:21;100326.00;;;13.84;40.08
12213;BME280;6169;44.158;22.788;2023-03-08T08:39:23;100321.63;;;13.88;39.26
12213;BME280;6169;44.158;22.788;2023-03-08T08:44:27;100321.72;;;14.24;39.46
12213;BME280;6169;44.158;22.788;2023-03-08T08:49:29;100304.78;;;14.42;38.51
12213;BME280;6169;44.158;22.788;2023-03-08T08:54:32;100295.25;;;14.76;36.04
12213;BME280;6169;44.158;22.788;2023-03-08T08:59:36;100289.50;;;14.82;33.30
12213;BME280;6169;44.158;22.788;2023-03-08T09:04:38;100296.06;;;14.97;32.29
12213;BME280;6169;44.158;22.788;2023-03-08T09:09:40;100291.22;;;15.64;29.95
12213;BME280;6169;44.158;22.788;2023-03-08T09:14:44;100296.72;;;16.13;31.21
12213;BME280;6169;44.158;22.788;2023-03-08T09:19:47;100275.97;;;16.36;29.20
12213;BME280;6169;44.158;22.788;2023-03-08T09:24:49;100282.88;;;16.28;28.16
12213;BME280;6169;44.158;22.788;2023-03-08T09:29:53;100282.69;;;16.88;27.91
12213;BME280;6169;44.158;22.788;2023-03-08T09:34:57;100288.47;;;17.16;27.15
12213;BME280;6169;44.158;22.788;2023-03-08T09:39:59;100283.44;;;16.99;27.30
12213;BME280;6169;44.158;22.788;2023-03-08T09:45:17;100279.25;;;17.31;26.39
12213;BME280;6169;44.158;22.788;2023-03-08T09:50:42;100283.13;;;17.73;27.07
12213;BME280;6169;44.158;22.788;2023-03-08T09:55:48;100283.03;;;17.35;27.34
12213;BME280;6169;44.158;22.788;2023-03-08T10:00:54;100279.06;;;17.89;25.62
12213;BME280;6169;44.158;22.788;2023-03-08T10:06:03;100287.06;;;18.10;24.59
12213;BME280;6169;44.158;22.788;2023-03-08T10:11:17;100281.81;;;18.46;24.50
12213;BME280;6169;44.158;22.788;2023-03-08T10:16:24;100278.34;;;18.02;24.94
12213;BME280;6169;44.158;22.788;2023-03-08T10:21:29;100267.69;;;19.13;23.38
12213;BME280;6169;44.158;22.788;2023-03-08T10:26:33;100251.06;;;19.04;23.95
12213;BME280;6169;44.158;22.788;2023-03-08T10:31:37;100250.47;;;19.35;24.00
12213;BME280;6169;44.158;22.788;2023-03-08T10:36:47;100236.19;;;18.91;22.39
12213;BME280;6169;44.158;22.788;2023-03-08T10:41:52;100243.25;;;18.32;23.45
12213;BME280;6169;44.158;22.788;2023-03-08T10:46:56;100234.06;;;18.04;23.29
12213;BME280;6169;44.158;22.788;2023-03-08T10:52:00;100193.44;;;18.80;22.89
12213;BME280;6169;44.158;22.788;2023-03-08T10:57:02;100223.88;;;20.03;23.19
12213;BME280;6169;44.158;22.788;2023-03-08T11:02:17;100214.44;;;19.59;22.37
12213;BME280;6169;44.158;22.788;2023-03-08T11:07:24;100217.66;;;18.32;24.82
12213;BME280;6169;44.158;22.788;2023-03-08T11:12:26;100225.03;;;17.79;25.77
12213;BME280;6169;44.158;22.788;2023-03-08T11:17:32;100203.72;;;17.90;25.24
12213;BME280;6169;44.158;22.788;2023-03-08T11:22:49;100205.06;;;17.93;26.46
12213;BME280;6169;44.158;22.788;2023-03-08T11:28:01;100214.84;;;17.80;26.17
12213;BME280;6169;44.158;22.788;2023-03-08T11:33:39;100215.47;;;18.94;25.60
12213;BME280;6169;44.158;22.788;2023-03-08T11:38:53;100208.41;;;18.74;25.71
12213;BME280;6169;44.158;22.788;2023-03-08T11:44:20;100212.41;;;19.23;24.53
12213;BME280;6169;44.158;22.788;2023-03-08T11:49:40;100205.97;;;19.42;24.08
12213;BME280;6169;44.158;22.788;2023-03-08T11:54:56;100200.97;;;18.88;24.88
12213;BME280;6169;44.158;22.788;2023-03-08T12:00:08;100208.63;;;18.45;25.50
12213;BME280;6169;44.158;22.788;2023-03-08T12:05:23;100213.97;;;20.16;23.91
12213;BME280;6169;44.158;22.788;2023-03-08T12:10:29;100189.69;;;19.68;23.05
12213;BME280;6169;44.158;22.788;2023-03-08T12:15:39;100197.56;;;19.97;22.62
12213;BME280;6169;44.158;22.788;2023-03-08T12:20:49;100195.31;;;20.44;23.21
12213;BME280;6169;44.158;22.788;2023-03-08T12:26:01;100196.41;;;20.34;23.59
12213;BME280;6169;44.158;22.788;2023-03-08T12:31:18;100190.78;;;20.48;23.18
12213;BME280;6169;44.158;22.788;2023-03-08T12:36:37;100188.16;;;20.65;23.27
12213;BME280;6169;44.158;22.788;2023-03-08T12:41:41;100187.91;;;20.53;24.42
12213;BME280;6169;44.158;22.788;2023-03-08T12:46:48;100183.31;;;20.40;24.47
12213;BME280;6169;44.158;22.788;2023-03-08T12:52:03;100191.88;;;19.29;25.08
12213;BME280;6169;44.158;22.788;2023-03-08T12:57:15;100188.72;;;20.09;24.19
12213;BME280;6169;44.158;22.788;2023-03-08T13:02:24;100190.50;;;20.04;23.96
12213;BME280;6169;44.158;22.788;2023-03-08T13:07:32;100188.41;;;19.88;22.87
12213;BME280;6169;44.158;22.788;2023-03-08T13:12:49;100194.03;;;19.46;24.15
12213;BME280;6169;44.158;22.788;2023-03-08T13:18:01;100198.53;;;19.56;24.77
12213;BME280;6169;44.158;22.788;2023-03-08T13:23:20;100192.97;;;19.70;24.74
12213;BME280;6169;44.158;22.788;2023-03-08T13:28:25;100183.75;;;19.74;24.60
12213;BME280;6169;44.158;22.788;2023-03-08T13:33:30;100181.56;;;19.49;24.05
12213;BME280;6169;44.158;22.788;2023-03-08T13:38:36;100174.03;;;19.77;23.87
12213;BME280;6169;44.158;22.788;2023-03-08T13:43:39;100178.72;;;19.54;24.31
12213;BME280;6169;44.158;22.788;2023-03-08T13:48:43;100172.66;;;20.87;24.23
12213;BME280;6169;44.158;22.788;2023-03-08T13:53:47;100171.50;;;20.25;23.85
12213;BME280;6169;44.158;22.788;2023-03-08T13:58:50;100167.28;;;20.05;24.29
12213;BME280;6169;44.158;22.788;2023-03-08T14:03:55;100168.22;;;20.15;24.51
12213;BME280;6169;44.158;22.788;2023-03-08T14:08:59;100170.91;;;20.60;25.18
12213;BME280;6169;44.158;22.788;2023-03-08T14:14:04;100155.91;;;20.52;24.22
12213;BME280;6169;44.158;22.788;2023-03-08T14:19:19;100152.38;;;20.07;25.47
12213;BME280;6169;44.158;22.788;2023-03-08T14:24:25;100144.16;;;20.38;25.24
12213;BME280;6169;44.158;22.788;2023-03-08T14:29:29;100153.31;;;20.24;24.55
12213;BME280;6169;44.158;22.788;2023-03-08T14:34:33;100143.28;;;20.06;24.82
12213;BME280;6169;44.158;22.788;2023-03-08T14:39:40;100131.88;;;19.76;25.16
12213;BME280;6169;44.158;22.788;2023-03-08T14:44:49;100128.97;;;18.95;26.54
12213;BME280;6169;44.158;22.788;2023-03-08T14:50:01;100134.72;;;18.38;27.15
12213;BME280;6169;44.158;22.788;2023-03-08T14:55:19;100096.03;;;18.76;26.63
12213;BME280;6169;44.158;22.788;2023-03-08T15:00:24;100121.03;;;19.30;25.96
12213;BME280;6169;44.158;22.788;2023-03-08T15:05:28;100117.06;;;19.50;26.49
12213;BME280;6169;44.158;22.788;2023-03-08T15:10:34;100115.53;;;19.44;26.81
12213;BME280;6169;44.158;22.788;2023-03-08T15:15:37;100110.22;;;19.33;27.06
12213;BME280;6169;44.158;22.788;2023-03-08T15:20:41;100115.63;;;19.38;26.22
12213;BME280;6169;44.158;22.788;2023-03-08T15:25:46;100104.44;;;18.38;26.77
12213;BME280;6169;44.158;22.788;2023-03-08T15:30:49;100099.06;;;18.61;27.51
12213;BME280;6169;44.158;22.788;2023-03-08T15:35:52;100103.25;;;18.58;28.25
12213;BME280;6169;44.158;22.788;2023-03-08T15:40:56;100101.47;;;18.21;28.40
12213;BME280;6169;44.158;22.788;2023-03-08T15:45:58;100103.19;;;18.17;28.86
12213;BME280;6169;44.158;22.788;2023-03-08T15:51:00;100096.66;;;18.13;28.83
12213;BME280;6169;44.158;22.788;2023-03-08T15:56:05;100090.34;;;18.12;29.14
12213;BME280;6169;44.158;22.788;2023-03-08T16:01:07;100096.09;;;17.97;29.43
12213;BME280;6169;44.158;22.788;2023-03-08T16:06:11;100099.03;;;17.68;30.36
12213;BME280;6169;44.158;22.788;2023-03-08T16:11:17;100101.50;;;17.50;30.43
12213;BME280;6169;44.158;22.788;2023-03-08T16:16:21;100102.25;;;17.37;30.82
12213;BME280;6169;44.158;22.788;2023-03-08T16:21:24;100100.78;;;17.02;30.96
12213;BME280;6169;44.158;22.788;2023-03-08T16:26:28;100107.88;;;16.84;31.64
12213;BME280;6169;44.158;22.788;2023-03-08T16:31:30;100127.09;;;16.84;31.47
12213;BME280;6169;44.158;22.788;2023-03-08T16:36:33;100138.47;;;16.72;31.50
12213;BME280;6169;44.158;22.788;2023-03-08T16:41:38;100132.38;;;16.51;31.84
12213;BME280;6169;44.158;22.788;2023-03-08T16:46:41;100146.69;;;16.48;32.04
12213;BME280;6169;44.158;22.788;2023-03-08T16:51:43;100153.13;;;16.33;32.54
12213;BME280;6169;44.158;22.788;2023-03-08T16:56:48;100179.00;;;16.22;32.99
12213;BME280;6169;44.158;22.788;2023-03-08T17:01:50;100185.66;;;16.11;33.34
12213;BME280;6169;44.158;22.788;2023-03-08T17:06:53;100175.81;;;15.75;34.10
12213;BME280;6169;44.158;22.788;2023-03-08T17:11:56;100167.38;;;15.67;34.21
12213;BME280;6169;44.158;22.788;2023-03-08T17:16:59;100141.41;;;15.49;34.14
12213;BME280;6169;44.158;22.788;2023-03-08T17:22:01;100162.06;;;15.31;34.81
12213;BME280;6169;44.158;22.788;2023-03-08T17:27:05;100160.69;;;15.33;34.83
12213;BME280;6169;44.158;22.788;2023-03-08T17:32:07;100177.72;;;15.15;35.32
12213;BME280;6169;44.158;22.788;2023-03-08T17:37:10;100179.09;;;15.12;34.74
12213;BME280;6169;44.158;22.788;2023-03-08T17:42:14;100164.94;;;14.90;35.09
12213;BME280;6169;44.158;22.788;2023-03-08T17:47:16;100170.72;;;14.88;34.70
12213;BME280;6169;44.158;22.788;2023-03-08T17:52:19;100175.16;;;15.39;33.62
12213;BME280;6169;44.158;22.788;2023-03-08T17:57:23;100168.78;;;15.59;33.25
12213;BME280;6169;44.158;22.788;2023-03-08T18:02:25;100171.31;;;15.40;33.15
12213;BME280;6169;44.158;22.788;2023-03-08T18:07:28;100184.69;;;15.57;32.98
12213;BME280;6169;44.158;22.788;2023-03-08T18:12:31;100190.03;;;15.77;32.35
12213;BME280;6169;44.158;22.788;2023-03-08T18:17:34;100194.16;;;15.75;32.54
12213;BME280;6169;44.158;22.788;2023-03-08T18:22:39;100198.44;;;15.36;33.11
12213;BME280;6169;44.158;22.788;2023-03-08T18:27:44;100195.19;;;15.84;32.67
12213;BME280;6169;44.158;22.788;2023-03-08T18:32:47;100205.22;;;15.49;33.02
12213;BME280;6169;44.158;22.788;2023-03-08T18:37:50;100204.94;;;15.51;33.51
12213;BME280;6169;44.158;22.788;2023-03-08T18:42:54;100207.44;;;15.47;33.44
12213;BME280;6169;44.158;22.788;2023-03-08T18:47:56;100215.91;;;15.61;33.11
12213;BME280;6169;44.158;22.788;2023-03-08T18:52:59;100229.16;;;15.33;33.47
12213;BME280;6169;44.158;22.788;2023-03-08T18:58:02;100230.28;;;15.17;34.07
12213;BME280;6169;44.158;22.788;2023-03-08T19:03:05;100231.09;;;15.23;34.18
12213;BME280;6169;44.158;22.788;2023-03-08T19:08:07;100222.44;;;14.90;34.82
12213;BME280;6169;44.158;22.788;2023-03-08T19:13:11;100237.72;;;14.96;34.64
12213;BME280;6169;44.158;22.788;2023-03-08T19:18:14;100224.31;;;15.05;34.90
12213;BME280;6169;44.158;22.788;2023-03-08T19:23:16;100231.44;;;14.90;35.15
12213;BME280;6169;44.158;22.788;2023-03-08T19:28:20;100226.03;;;14.60;35.51
12213;BME280;6169;44.158;22.788;2023-03-08T19:33:22;100235.31;;;14.38;36.24
12213;BME280;6169;44.158;22.788;2023-03-08T19:38:25;100234.78;;;14.67;35.97
12213;BME280;6169;44.158;22.788;2023-03-08T19:43:28;100191.84;;;14.42;36.40
12213;BME280;6169;44.158;22.788;2023-03-08T19:48:31;100217.53;;;14.51;36.36
12213;BME280;6169;44.158;22.788;2023-03-08T19:53:33;100221.09;;;14.46;36.23
12213;BME280;6169;44.158;22.788;2023-03-08T19:58:37;100216.16;;;14.59;36.34
12213;BME280;6169;44.158;22.788;2023-03-08T20:03:40;100207.97;;;14.54;36.19
12213;BME280;6169;44.158;22.788;2023-03-08T20:08:42;100216.16;;;14.54;36.87
12213;BME280;6169;44.158;22.788;2023-03-08T20:13:46;100221.09;;;14.31;36.84
12213;BME280;6169;44.158;22.788;2023-03-08T20:18:49;100211.53;;;14.34;37.04
12213;BME280;6169;44.158;22.788;2023-03-08T20:23:51;100204.69;;;14.52;36.86
12213;BME280;6169;44.158;22.788;2023-03-08T20:28:58;100205.50;;;14.57;36.84
12213;BME280;6169;44.158;22.788;2023-03-08T20:34:01;100200.31;;;14.56;36.61
12213;BME280;6169;44.158;22.788;2023-03-08T20:39:03;100043.44;;;13.44;37.14
12213;BME280;6169;44.158;22.788;2023-03-08T20:44:09;100194.31;;;14.23;37.69
12213;BME280;6169;44.158;22.788;2023-03-08T20:49:11;100209.63;;;14.24;37.40
12213;BME280;6169;44.158;22.788;2023-03-08T20:54:16;100205.50;;;14.16;37.74
12213;BME280;6169;44.158;22.788;2023-03-08T20:59:20;100173.28;;;13.98;37.41
12213;BME280;6169;44.158;22.788;2023-03-08T21:04:23;100210.16;;;13.90;38.21
12213;BME280;6169;44.158;22.788;2023-03-08T21:09:25;100209.56;;;13.83;38.63
12213;BME280;6169;44.158;22.788;2023-03-08T21:14:29;100221.53;;;13.67;38.65
12213;BME280;6169;44.158;22.788;2023-03-08T21:19:32;100222.97;;;13.79;38.23
12213;BME280;6169;44.158;22.788;2023-03-08T21:24:34;100219.16;;;13.75;38.72
12213;BME280;6169;44.158;22.788;2023-03-08T21:29:39;100208.66;;;13.52;38.42
12213;BME280;6169;44.158;22.788;2023-03-08T21:34:41;100218.47;;;13.48;38.54
12213;BME280;6169;44.158;22.788;2023-03-08T21:39:44;100219.97;;;13.13;39.44
12213;BME280;6169;44.158;22.788;2023-03-08T21:44:48;100229.66;;;13.46;38.54
12213;BME280;6169;44.158;22.788;2023-03-08T21:49:50;100230.50;;;13.52;38.60
12213;BME280;6169;44.158;22.788;2023-03-08T21:54:52;100222.28;;;13.47;38.42
12213;BME280;6169;44.158;22.788;2023-03-08T21:59:56;100231.47;;;14.09;37.84
12213;BME280;6169;44.158;22.788;2023-03-08T22:04:58;100228.75;;;14.03;37.65
12213;BME280;6169;44.158;22.788;2023-03-08T22:10:02;100223.72;;;13.65;38.23
12213;BME280;6169;44.158;22.788;2023-03-08T22:15:07;100205.38;;;13.55;38.75
12213;BME280;6169;44.158;22.788;2023-03-08T22:20:11;100201.88;;;12.91;39.82
12213;BME280;6169;44.158;22.788;2023-03-08T22:25:13;100197.94;;;13.30;38.83
12213;BME280;6169;44.158;22.788;2023-03-08T22:30:17;100195.91;;;13.00;39.36
12213;BME280;6169;44.158;22.788;2023-03-08T22:35:19;100190.38;;;12.89;39.42
12213;BME280;6169;44.158;22.788;2023-03-08T22:40:22;100184.22;;;12.67;39.88
12213;BME280;6169;44.158;22.788;2023-03-08T22:45:26;100177.75;;;12.36;40.44
12213;BME280;6169;44.158;22.788;2023-03-08T22:50:29;100163.38;;;12.93;39.34
12213;BME280;6169;44.158;22.788;2023-03-08T22:55:31;100176.19;;;12.87;39.22
12213;BME280;6169;44.158;22.788;2023-03-08T23:00:35;100179.00;;;13.03;39.06
12213;BME280;6169;44.158;22.788;2023-03-08T23:05:38;100189.66;;;13.09;39.44
12213;BME280;6169;44.158;22.788;2023-03-08T23:10:40;100184.97;;;12.52;40.28
12213;BME280;6169;44.158;22.788;2023-03-08T23:15:46;100192.38;;;13.04;38.88
12213;BME280;6169;44.158;22.788;2023-03-08T23:20:49;100191.31;;;13.10;39.20
12213;BME280;6169;44.158;22.788;2023-03-08T23:25:51;100185.81;;;13.00;39.07
12213;BME280;6169;44.158;22.788;2023-03-08T23:30:55;100180.44;;;13.26;38.81
12213;BME280;6169;44.158;22.788;2023-03-08T23:35:57;100166.84;;;13.41;38.28
12213;BME280;6169;44.158;22.788;2023-03-08T23:41:02;100161.09;;;13.37;38.24
12213;BME280;6169;44.158;22.788;2023-03-08T23:46:08;100169.25;;;13.22;38.29
12213;BME280;6169;44.158;22.788;2023-03-08T23:51:12;100156.09;;;13.09;38.59
12213;BME280;6169;44.158;22.788;2023-03-08T23:56:18;100156.88;;;12.52;39.68
